West Paducah, Kentucky
Current Conditions -  °F | °C
As of 5:53 AM on Thursday 27 Nov 2014 (Local Time) from KPAH Reporting Station
Overcast Overcast  
Wind Chill: 27°   Ceiling: 1000
Heat Index: 35°   Visibility: 7mi
Dew Point: 32°   Wind: 10mph
Humidity: 89%   Direction: 320°NW
Pressure: 30.35"   Gusts: NA
Location:  37.08°N, 88.74°W
Report Text: KPAH 271153Z AUTO 32009KT 7SM BKN010 OVC017 02/00 A3035 RMK AO2 CIG 007V014 SLP279 60000 70011 T00170000 10033 20011 51027
Loading
Personal Weather Stations






























Interactive Weather Map New forecast layout! Learn more

10-Day Weather Forecast

Advertisements
Track Severe Weather on mobile